sensor_id;sensor_type;location;lat;lon;timestamp;temperature;humidity
19970;DHT22;10146;47.754;9.566;2023-05-02T00:00:08;9.50;99.90
19970;DHT22;10146;47.754;9.566;2023-05-02T00:02:34;9.50;99.90
19970;DHT22;10146;47.754;9.566;2023-05-02T00:05:00;9.60;99.90
19970;DHT22;10146;47.754;9.566;2023-05-02T00:07:26;9.50;99.90
19970;DHT22;10146;47.754;9.566;2023-05-02T00:09:52;9.50;99.90
19970;DHT22;10146;47.754;9.566;2023-05-02T00:12:17;9.50;99.90
19970;DHT22;10146;47.754;9.566;2023-05-02T00:14:43;9.50;99.90
19970;DHT22;10146;47.754;9.566;2023-05-02T00:17:15;9.40;99.90
19970;DHT22;10146;47.754;9.566;2023-05-02T00:19:41;9.40;99.90
19970;DHT22;10146;47.754;9.566;2023-05-02T00:22:07;9.40;99.90
19970;DHT22;10146;47.754;9.566;2023-05-02T00:24:32;9.30;99.90
19970;DHT22;10146;47.754;9.566;2023-05-02T00:26:58;9.30;99.90
19970;DHT22;10146;47.754;9.566;2023-05-02T00:29:24;9.30;99.90
19970;DHT22;10146;47.754;9.566;2023-05-02T00:31:49;9.40;99.90
19970;DHT22;10146;47.754;9.566;2023-05-02T00:34:15;9.30;99.90
19970;DHT22;10146;47.754;9.566;2023-05-02T00:36:41;9.30;99.90
19970;DHT22;10146;47.754;9.566;2023-05-02T00:39:06;9.30;99.90
19970;DHT22;10146;47.754;9.566;2023-05-02T00:41:32;9.30;99.90
19970;DHT22;10146;47.754;9.566;2023-05-02T00:43:57;9.30;99.90
19970;DHT22;10146;47.754;9.566;2023-05-02T00:46:23;9.30;99.90
19970;DHT22;10146;47.754;9.566;2023-05-02T00:48:49;9.20;99.90
19970;DHT22;10146;47.754;9.566;2023-05-02T00:51:15;9.30;99.90
19970;DHT22;10146;47.754;9.566;2023-05-02T00:53:41;9.20;99.90
19970;DHT22;10146;47.754;9.566;2023-05-02T00:56:07;9.20;99.90
19970;DHT22;10146;47.754;9.566;2023-05-02T00:58:33;9.20;99.90
19970;DHT22;10146;47.754;9.566;2023-05-02T01:01:10;9.10;99.90
19970;DHT22;10146;47.754;9.566;2023-05-02T01:03:54;9.20;99.90
19970;DHT22;10146;47.754;9.566;2023-05-02T01:09:42;9.20;99.90
19970;DHT22;10146;47.754;9.566;2023-05-02T01:12:41;9.00;99.90
19970;DHT22;10146;47.754;9.566;2023-05-02T01:15:10;9.00;99.90
19970;DHT22;10146;47.754;9.566;2023-05-02T01:17:37;9.10;99.90
19970;DHT22;10146;47.754;9.566;2023-05-02T01:20:10;9.10;99.90
19970;DHT22;10146;47.754;9.566;2023-05-02T01:22:38;9.20;99.90
19970;DHT22;10146;47.754;9.566;2023-05-02T01:28:04;9.10;99.90
19970;DHT22;10146;47.754;9.566;2023-05-02T01:30:35;9.10;99.90
19970;DHT22;10146;47.754;9.566;2023-05-02T01:33:03;9.10;99.90
19970;DHT22;10146;47.754;9.566;2023-05-02T01:35:31;9.20;99.90
19970;DHT22;10146;47.754;9.566;2023-05-02T01:37:58;9.20;99.90
19970;DHT22;10146;47.754;9.566;2023-05-02T01:40:25;9.30;99.90
19970;DHT22;10146;47.754;9.566;2023-05-02T01:42:52;9.20;99.90
19970;DHT22;10146;47.754;9.566;2023-05-02T01:45:20;9.30;99.90
19970;DHT22;10146;47.754;9.566;2023-05-02T01:47:46;9.30;99.90
19970;DHT22;10146;47.754;9.566;2023-05-02T01:50:18;9.40;99.90
19970;DHT22;10146;47.754;9.566;2023-05-02T01:52:46;9.30;99.90
19970;DHT22;10146;47.754;9.566;2023-05-02T01:55:13;9.50;99.90
19970;DHT22;10146;47.754;9.566;2023-05-02T01:57:41;9.40;99.90
19970;DHT22;10146;47.754;9.566;2023-05-02T02:00:09;9.50;99.90
19970;DHT22;10146;47.754;9.566;2023-05-02T02:02:36;9.50;99.90
19970;DHT22;10146;47.754;9.566;2023-05-02T02:05:03;9.60;99.90
19970;DHT22;10146;47.754;9.566;2023-05-02T02:07:30;9.60;99.90
19970;DHT22;10146;47.754;9.566;2023-05-02T02:09:55;9.60;99.90
19970;DHT22;10146;47.754;9.566;2023-05-02T02:12:31;9.60;99.90
19970;DHT22;10146;47.754;9.566;2023-05-02T02:15:05;9.50;99.90
19970;DHT22;10146;47.754;9.566;2023-05-02T02:17:42;9.40;99.90
19970;DHT22;10146;47.754;9.566;2023-05-02T02:20:10;9.40;99.90
19970;DHT22;10146;47.754;9.566;2023-05-02T02:22:38;9.30;99.90
19970;DHT22;10146;47.754;9.566;2023-05-02T02:25:07;9.40;99.90
19970;DHT22;10146;47.754;9.566;2023-05-02T02:27:36;9.40;99.90
19970;DHT22;10146;47.754;9.566;2023-05-02T02:30:02;9.50;99.90
19970;DHT22;10146;47.754;9.566;2023-05-02T02:32:28;9.50;99.90
19970;DHT22;10146;47.754;9.566;2023-05-02T02:34:54;9.50;99.90
19970;DHT22;10146;47.754;9.566;2023-05-02T02:37:30;9.50;99.90
19970;DHT22;10146;47.754;9.566;2023-05-02T02:40:18;9.50;99.90
19970;DHT22;10146;47.754;9.566;2023-05-02T02:42:58;9.50;99.90
19970;DHT22;10146;47.754;9.566;2023-05-02T02:45:36;9.60;99.90
19970;DHT22;10146;47.754;9.566;2023-05-02T02:51:09;9.60;99.90
19970;DHT22;10146;47.754;9.566;2023-05-02T02:56:38;9.60;99.90
19970;DHT22;10146;47.754;9.566;2023-05-02T02:59:22;9.70;99.90
19970;DHT22;10146;47.754;9.566;2023-05-02T03:01:59;9.60;99.90
19970;DHT22;10146;47.754;9.566;2023-05-02T03:04:29;9.70;99.90
19970;DHT22;10146;47.754;9.566;2023-05-02T03:06:55;9.70;99.90
19970;DHT22;10146;47.754;9.566;2023-05-02T03:09:21;9.80;99.90
19970;DHT22;10146;47.754;9.566;2023-05-02T03:11:47;9.70;99.90
19970;DHT22;10146;47.754;9.566;2023-05-02T03:14:12;9.70;99.90
19970;DHT22;10146;47.754;9.566;2023-05-02T03:16:39;9.80;99.90
19970;DHT22;10146;47.754;9.566;2023-05-02T03:19:05;9.80;99.90
19970;DHT22;10146;47.754;9.566;2023-05-02T03:21:31;9.80;99.90
19970;DHT22;10146;47.754;9.566;2023-05-02T03:24:02;9.80;99.90
19970;DHT22;10146;47.754;9.566;2023-05-02T03:26:28;9.80;99.90
19970;DHT22;10146;47.754;9.566;2023-05-02T03:28:54;9.80;99.90
19970;DHT22;10146;47.754;9.566;2023-05-02T03:31:21;9.80;99.90
19970;DHT22;10146;47.754;9.566;2023-05-02T03:33:47;9.70;99.90
19970;DHT22;10146;47.754;9.566;2023-05-02T03:36:13;9.70;99.90
19970;DHT22;10146;47.754;9.566;2023-05-02T03:38:39;9.60;99.90
19970;DHT22;10146;47.754;9.566;2023-05-02T03:41:05;9.60;99.90
19970;DHT22;10146;47.754;9.566;2023-05-02T03:43:31;9.50;99.90
19970;DHT22;10146;47.754;9.566;2023-05-02T03:45:57;9.50;99.90
19970;DHT22;10146;47.754;9.566;2023-05-02T03:48:22;9.50;99.90
19970;DHT22;10146;47.754;9.566;2023-05-02T03:50:49;9.60;99.90
19970;DHT22;10146;47.754;9.566;2023-05-02T03:53:15;9.60;99.90
19970;DHT22;10146;47.754;9.566;2023-05-02T03:55:42;9.60;99.90
19970;DHT22;10146;47.754;9.566;2023-05-02T03:58:09;9.60;99.90
19970;DHT22;10146;47.754;9.566;2023-05-02T04:00:34;9.60;99.90
19970;DHT22;10146;47.754;9.566;2023-05-02T04:03:01;9.70;99.90
19970;DHT22;10146;47.754;9.566;2023-05-02T04:05:27;9.70;99.90
19970;DHT22;10146;47.754;9.566;2023-05-02T04:07:53;9.70;99.90
19970;DHT22;10146;47.754;9.566;2023-05-02T04:10:18;9.70;99.90
19970;DHT22;10146;47.754;9.566;2023-05-02T04:12:44;9.60;99.90
19970;DHT22;10146;47.754;9.566;2023-05-02T04:15:10;9.60;99.90
19970;DHT22;10146;47.754;9.566;2023-05-02T04:17:36;9.60;99.90
19970;DHT22;10146;47.754;9.566;2023-05-02T04:20:02;9.70;99.90
19970;DHT22;10146;47.754;9.566;2023-05-02T04:22:29;9.70;99.90
19970;DHT22;10146;47.754;9.566;2023-05-02T04:24:55;9.70;99.90
19970;DHT22;10146;47.754;9.566;2023-05-02T04:27:20;9.70;99.90
19970;DHT22;10146;47.754;9.566;2023-05-02T04:29:50;9.70;99.90
19970;DHT22;10146;47.754;9.566;2023-05-02T04:32:15;9.70;99.90
19970;DHT22;10146;47.754;9.566;2023-05-02T04:34:41;9.80;99.90
19970;DHT22;10146;47.754;9.566;2023-05-02T04:37:07;9.80;99.90
19970;DHT22;10146;47.754;9.566;2023-05-02T04:39:33;9.80;99.90
19970;DHT22;10146;47.754;9.566;2023-05-02T04:41:59;9.90;99.90
19970;DHT22;10146;47.754;9.566;2023-05-02T04:44:25;9.90;99.90
19970;DHT22;10146;47.754;9.566;2023-05-02T04:46:51;9.90;99.90
19970;DHT22;10146;47.754;9.566;2023-05-02T04:49:16;9.90;99.90
19970;DHT22;10146;47.754;9.566;2023-05-02T04:51:42;9.90;99.90
19970;DHT22;10146;47.754;9.566;2023-05-02T04:54:08;9.90;99.90
19970;DHT22;10146;47.754;9.566;2023-05-02T04:56:34;9.90;99.90
19970;DHT22;10146;47.754;9.566;2023-05-02T04:59:02;10.10;99.90
19970;DHT22;10146;47.754;9.566;2023-05-02T05:01:28;10.10;99.90
19970;DHT22;10146;47.754;9.566;2023-05-02T05:03:54;10.10;99.90
19970;DHT22;10146;47.754;9.566;2023-05-02T05:06:20;10.00;99.90
19970;DHT22;10146;47.754;9.566;2023-05-02T05:08:46;10.00;99.90
19970;DHT22;10146;47.754;9.566;2023-05-02T05:11:12;10.00;99.90
19970;DHT22;10146;47.754;9.566;2023-05-02T05:13:38;10.10;99.90
19970;DHT22;10146;47.754;9.566;2023-05-02T05:16:04;10.00;99.90
19970;DHT22;10146;47.754;9.566;2023-05-02T05:18:30;10.00;99.90
19970;DHT22;10146;47.754;9.566;2023-05-02T05:20:56;10.10;99.90
19970;DHT22;10146;47.754;9.566;2023-05-02T05:23:21;10.20;99.90
19970;DHT22;10146;47.754;9.566;2023-05-02T05:25:47;10.20;99.90
19970;DHT22;10146;47.754;9.566;2023-05-02T05:28:12;10.30;99.90
19970;DHT22;10146;47.754;9.566;2023-05-02T05:30:38;10.30;99.90
19970;DHT22;10146;47.754;9.566;2023-05-02T05:33:04;10.30;99.90
19970;DHT22;10146;47.754;9.566;2023-05-02T05:35:30;10.40;99.90
19970;DHT22;10146;47.754;9.566;2023-05-02T05:37:57;10.40;99.90
19970;DHT22;10146;47.754;9.566;2023-05-02T05:40:22;10.50;99.90
19970;DHT22;10146;47.754;9.566;2023-05-02T05:42:48;10.50;99.90
19970;DHT22;10146;47.754;9.566;2023-05-02T05:45:14;10.60;99.90
19970;DHT22;10146;47.754;9.566;2023-05-02T05:47:41;10.60;99.90
19970;DHT22;10146;47.754;9.566;2023-05-02T05:50:07;10.50;99.90
19970;DHT22;10146;47.754;9.566;2023-05-02T05:52:33;10.60;99.90
19970;DHT22;10146;47.754;9.566;2023-05-02T05:54:58;10.60;99.90
19970;DHT22;10146;47.754;9.566;2023-05-02T05:57:24;10.70;99.90
19970;DHT22;10146;47.754;9.566;2023-05-02T05:59:51;10.80;99.90
19970;DHT22;10146;47.754;9.566;2023-05-02T06:02:17;10.70;99.90
19970;DHT22;10146;47.754;9.566;2023-05-02T06:04:44;10.70;99.90
19970;DHT22;10146;47.754;9.566;2023-05-02T06:07:10;10.80;99.90
19970;DHT22;10146;47.754;9.566;2023-05-02T06:09:36;10.80;99.90
19970;DHT22;10146;47.754;9.566;2023-05-02T06:12:02;10.70;99.90
19970;DHT22;10146;47.754;9.566;2023-05-02T06:14:27;10.70;99.90
19970;DHT22;10146;47.754;9.566;2023-05-02T06:16:53;10.70;99.90
19970;DHT22;10146;47.754;9.566;2023-05-02T06:19:19;10.80;99.90
19970;DHT22;10146;47.754;9.566;2023-05-02T06:21:44;10.80;99.90
19970;DHT22;10146;47.754;9.566;2023-05-02T06:24:10;11.00;99.90
19970;DHT22;10146;47.754;9.566;2023-05-02T06:26:35;10.90;99.90
19970;DHT22;10146;47.754;9.566;2023-05-02T06:29:01;10.80;99.90
19970;DHT22;10146;47.754;9.566;2023-05-02T06:31:27;10.80;99.90
19970;DHT22;10146;47.754;9.566;2023-05-02T06:33:53;10.80;99.90
19970;DHT22;10146;47.754;9.566;2023-05-02T06:36:19;10.80;99.90
19970;DHT22;10146;47.754;9.566;2023-05-02T06:38:44;10.90;99.90
19970;DHT22;10146;47.754;9.566;2023-05-02T06:41:13;11.00;99.90
19970;DHT22;10146;47.754;9.566;2023-05-02T06:43:39;11.10;99.90
19970;DHT22;10146;47.754;9.566;2023-05-02T06:46:06;11.10;99.90
19970;DHT22;10146;47.754;9.566;2023-05-02T06:48:32;11.20;99.90
19970;DHT22;10146;47.754;9.566;2023-05-02T06:50:59;11.30;99.90
19970;DHT22;10146;47.754;9.566;2023-05-02T06:53:25;11.30;99.90
19970;DHT22;10146;47.754;9.566;2023-05-02T06:55:51;11.50;99.90
19970;DHT22;10146;47.754;9.566;2023-05-02T06:58:17;11.60;99.90
19970;DHT22;10146;47.754;9.566;2023-05-02T07:00:43;11.70;99.90
19970;DHT22;10146;47.754;9.566;2023-05-02T07:03:09;11.50;99.90
19970;DHT22;10146;47.754;9.566;2023-05-02T07:05:35;11.50;99.90
19970;DHT22;10146;47.754;9.566;2023-05-02T07:08:01;11.50;99.90
19970;DHT22;10146;47.754;9.566;2023-05-02T07:10:26;11.60;99.90
19970;DHT22;10146;47.754;9.566;2023-05-02T07:12:52;11.50;99.90
19970;DHT22;10146;47.754;9.566;2023-05-02T07:15:18;11.50;99.90
19970;DHT22;10146;47.754;9.566;2023-05-02T07:17:43;11.60;99.90
19970;DHT22;10146;47.754;9.566;2023-05-02T07:20:11;11.70;99.90
19970;DHT22;10146;47.754;9.566;2023-05-02T07:22:37;11.70;99.90
19970;DHT22;10146;47.754;9.566;2023-05-02T07:25:03;11.70;99.90
19970;DHT22;10146;47.754;9.566;2023-05-02T07:27:29;11.80;99.90
19970;DHT22;10146;47.754;9.566;2023-05-02T07:29:55;11.70;99.90
19970;DHT22;10146;47.754;9.566;2023-05-02T07:32:20;11.90;99.90
19970;DHT22;10146;47.754;9.566;2023-05-02T07:34:46;12.00;99.90
19970;DHT22;10146;47.754;9.566;2023-05-02T07:37:12;12.00;99.90
19970;DHT22;10146;47.754;9.566;2023-05-02T07:39:38;11.90;99.90
19970;DHT22;10146;47.754;9.566;2023-05-02T07:42:03;11.90;99.90
19970;DHT22;10146;47.754;9.566;2023-05-02T07:44:31;12.00;99.90
19970;DHT22;10146;47.754;9.566;2023-05-02T07:46:57;12.10;99.90
19970;DHT22;10146;47.754;9.566;2023-05-02T07:49:23;12.00;99.90
19970;DHT22;10146;47.754;9.566;2023-05-02T07:51:49;11.90;99.90
19970;DHT22;10146;47.754;9.566;2023-05-02T07:54:18;12.00;99.90
19970;DHT22;10146;47.754;9.566;2023-05-02T07:56:44;12.00;99.90
19970;DHT22;10146;47.754;9.566;2023-05-02T07:59:10;12.00;99.90
19970;DHT22;10146;47.754;9.566;2023-05-02T08:01:37;12.00;99.90
19970;DHT22;10146;47.754;9.566;2023-05-02T08:04:03;12.10;99.90
19970;DHT22;10146;47.754;9.566;2023-05-02T08:06:29;12.00;99.90
19970;DHT22;10146;47.754;9.566;2023-05-02T08:08:55;12.20;99.90
19970;DHT22;10146;47.754;9.566;2023-05-02T08:11:21;12.30;99.90
19970;DHT22;10146;47.754;9.566;2023-05-02T08:13:52;12.30;99.90
19970;DHT22;10146;47.754;9.566;2023-05-02T08:16:18;12.20;99.90
19970;DHT22;10146;47.754;9.566;2023-05-02T08:18:44;12.10;99.90
19970;DHT22;10146;47.754;9.566;2023-05-02T08:21:10;12.10;99.90
19970;DHT22;10146;47.754;9.566;2023-05-02T08:23:36;12.20;99.90
19970;DHT22;10146;47.754;9.566;2023-05-02T08:26:04;12.20;99.90
19970;DHT22;10146;47.754;9.566;2023-05-02T08:28:29;12.30;99.90
19970;DHT22;10146;47.754;9.566;2023-05-02T08:30:55;12.40;99.90
19970;DHT22;10146;47.754;9.566;2023-05-02T08:33:21;12.40;99.90
19970;DHT22;10146;47.754;9.566;2023-05-02T08:35:47;12.40;99.90
19970;DHT22;10146;47.754;9.566;2023-05-02T08:38:13;12.30;99.90
19970;DHT22;10146;47.754;9.566;2023-05-02T08:40:38;12.40;99.90
19970;DHT22;10146;47.754;9.566;2023-05-02T08:43:04;12.50;99.90
19970;DHT22;10146;47.754;9.566;2023-05-02T08:45:39;12.70;99.90
19970;DHT22;10146;47.754;9.566;2023-05-02T08:48:07;12.80;99.90
19970;DHT22;10146;47.754;9.566;2023-05-02T08:50:38;13.00;99.90
19970;DHT22;10146;47.754;9.566;2023-05-02T08:53:07;13.10;99.90
19970;DHT22;10146;47.754;9.566;2023-05-02T08:55:36;13.00;99.90
19970;DHT22;10146;47.754;9.566;2023-05-02T08:58:04;13.00;99.90
19970;DHT22;10146;47.754;9.566;2023-05-02T09:00:30;13.10;99.90
19970;DHT22;10146;47.754;9.566;2023-05-02T09:05:45;13.20;99.90
19970;DHT22;10146;47.754;9.566;2023-05-02T09:08:11;13.20;99.90
19970;DHT22;10146;47.754;9.566;2023-05-02T09:10:38;13.20;99.90
19970;DHT22;10146;47.754;9.566;2023-05-02T09:13:34;13.00;99.90
19970;DHT22;10146;47.754;9.566;2023-05-02T09:16:01;12.90;99.90
19970;DHT22;10146;47.754;9.566;2023-05-02T09:18:50;13.00;99.90
19970;DHT22;10146;47.754;9.566;2023-05-02T09:21:15;12.90;99.90
19970;DHT22;10146;47.754;9.566;2023-05-02T09:23:49;13.00;99.90
19970;DHT22;10146;47.754;9.566;2023-05-02T09:26:25;13.30;99.90
19970;DHT22;10146;47.754;9.566;2023-05-02T09:28:54;13.40;99.90
19970;DHT22;10146;47.754;9.566;2023-05-02T09:31:24;13.40;99.90
19970;DHT22;10146;47.754;9.566;2023-05-02T09:33:51;13.80;99.90
19970;DHT22;10146;47.754;9.566;2023-05-02T09:36:18;13.80;99.90
19970;DHT22;10146;47.754;9.566;2023-05-02T09:38:45;13.70;99.90
19970;DHT22;10146;47.754;9.566;2023-05-02T09:41:11;13.90;99.90
19970;DHT22;10146;47.754;9.566;2023-05-02T09:43:38;14.20;99.90
19970;DHT22;10146;47.754;9.566;2023-05-02T09:46:07;14.20;99.90
19970;DHT22;10146;47.754;9.566;2023-05-02T09:48:56;14.30;99.90
19970;DHT22;10146;47.754;9.566;2023-05-02T09:51:26;14.40;99.90
19970;DHT22;10146;47.754;9.566;2023-05-02T09:53:52;14.50;99.90
19970;DHT22;10146;47.754;9.566;2023-05-02T09:56:18;14.70;99.90
19970;DHT22;10146;47.754;9.566;2023-05-02T09:58:43;14.80;99.90
19970;DHT22;10146;47.754;9.566;2023-05-02T10:01:16;14.90;99.90
19970;DHT22;10146;47.754;9.566;2023-05-02T10:03:46;15.00;99.90
19970;DHT22;10146;47.754;9.566;2023-05-02T10:06:12;15.10;99.90
19970;DHT22;10146;47.754;9.566;2023-05-02T10:08:41;15.30;99.90
19970;DHT22;10146;47.754;9.566;2023-05-02T10:11:07;15.20;99.90
19970;DHT22;10146;47.754;9.566;2023-05-02T10:13:36;15.30;99.90
19970;DHT22;10146;47.754;9.566;2023-05-02T10:16:04;15.40;99.90
19970;DHT22;10146;47.754;9.566;2023-05-02T10:18:47;15.60;99.90
19970;DHT22;10146;47.754;9.566;2023-05-02T10:21:15;15.10;99.90
19970;DHT22;10146;47.754;9.566;2023-05-02T10:23:42;15.00;99.90
19970;DHT22;10146;47.754;9.566;2023-05-02T10:26:15;14.90;99.90
19970;DHT22;10146;47.754;9.566;2023-05-02T10:28:42;14.80;99.90
19970;DHT22;10146;47.754;9.566;2023-05-02T10:31:13;14.10;99.90
19970;DHT22;10146;47.754;9.566;2023-05-02T10:33:39;14.20;99.90
19970;DHT22;10146;47.754;9.566;2023-05-02T10:36:08;14.30;99.90
19970;DHT22;10146;47.754;9.566;2023-05-02T10:38:42;14.40;99.90
19970;DHT22;10146;47.754;9.566;2023-05-02T10:41:21;14.30;99.90
19970;DHT22;10146;47.754;9.566;2023-05-02T10:43:49;14.20;99.90
19970;DHT22;10146;47.754;9.566;2023-05-02T10:46:36;14.40;99.90
19970;DHT22;10146;47.754;9.566;2023-05-02T10:49:03;14.70;99.90
19970;DHT22;10146;47.754;9.566;2023-05-02T10:51:29;14.90;99.90
19970;DHT22;10146;47.754;9.566;2023-05-02T10:59:29;15.30;99.90
19970;DHT22;10146;47.754;9.566;2023-05-02T11:01:55;15.40;99.90
19970;DHT22;10146;47.754;9.566;2023-05-02T11:04:21;15.30;99.90
19970;DHT22;10146;47.754;9.566;2023-05-02T11:11:47;14.50;99.90
19970;DHT22;10146;47.754;9.566;2023-05-02T11:24:47;13.90;99.90
19970;DHT22;10146;47.754;9.566;2023-05-02T11:30:01;14.00;99.90
19970;DHT22;10146;47.754;9.566;2023-05-02T11:35:18;14.00;99.90
19970;DHT22;10146;47.754;9.566;2023-05-02T11:37:53;14.10;99.90
19970;DHT22;10146;47.754;9.566;2023-05-02T11:40:19;14.20;99.90
19970;DHT22;10146;47.754;9.566;2023-05-02T11:42:45;14.20;99.90
19970;DHT22;10146;47.754;9.566;2023-05-02T11:45:11;14.50;99.90
19970;DHT22;10146;47.754;9.566;2023-05-02T11:47:37;14.20;99.90
19970;DHT22;10146;47.754;9.566;2023-05-02T11:50:06;14.30;99.90
19970;DHT22;10146;47.754;9.566;2023-05-02T11:52:42;14.40;99.90
19970;DHT22;10146;47.754;9.566;2023-05-02T11:55:13;14.50;99.90
19970;DHT22;10146;47.754;9.566;2023-05-02T11:57:39;14.60;99.90
19970;DHT22;10146;47.754;9.566;2023-05-02T12:00:06;14.40;99.90
19970;DHT22;10146;47.754;9.566;2023-05-02T12:05:11;14.50;99.90
19970;DHT22;10146;47.754;9.566;2023-05-02T12:07:42;14.30;99.90
19970;DHT22;10146;47.754;9.566;2023-05-02T12:10:10;14.30;99.90
19970;DHT22;10146;47.754;9.566;2023-05-02T12:12:37;14.40;99.90
19970;DHT22;10146;47.754;9.566;2023-05-02T12:15:08;14.30;99.90
19970;DHT22;10146;47.754;9.566;2023-05-02T12:17:38;14.20;99.90
19970;DHT22;10146;47.754;9.566;2023-05-02T12:20:06;14.20;99.90
19970;DHT22;10146;47.754;9.566;2023-05-02T12:22:33;14.20;99.90
19970;DHT22;10146;47.754;9.566;2023-05-02T12:24:59;14.10;99.90
19970;DHT22;10146;47.754;9.566;2023-05-02T12:27:25;14.20;99.90
19970;DHT22;10146;47.754;9.566;2023-05-02T12:29:52;14.40;99.90
19970;DHT22;10146;47.754;9.566;2023-05-02T12:32:33;14.70;99.90
19970;DHT22;10146;47.754;9.566;2023-05-02T12:34:59;14.90;99.90
19970;DHT22;10146;47.754;9.566;2023-05-02T12:37:26;15.00;99.90
19970;DHT22;10146;47.754;9.566;2023-05-02T12:39:53;15.10;99.90
19970;DHT22;10146;47.754;9.566;2023-05-02T12:42:21;15.00;99.90
19970;DHT22;10146;47.754;9.566;2023-05-02T12:44:48;15.00;99.90
19970;DHT22;10146;47.754;9.566;2023-05-02T12:47:16;15.30;99.90
19970;DHT22;10146;47.754;9.566;2023-05-02T12:49:54;15.70;99.90
19970;DHT22;10146;47.754;9.566;2023-05-02T12:52:46;16.20;99.90
19970;DHT22;10146;47.754;9.566;2023-05-02T12:55:25;16.40;99.90
19970;DHT22;10146;47.754;9.566;2023-05-02T12:58:07;16.40;99.90
19970;DHT22;10146;47.754;9.566;2023-05-02T13:00:36;16.60;99.90
19970;DHT22;10146;47.754;9.566;2023-05-02T13:03:02;15.90;99.90
19970;DHT22;10146;47.754;9.566;2023-05-02T13:05:28;15.80;99.90
19970;DHT22;10146;47.754;9.566;2023-05-02T13:07:53;15.70;99.90
19970;DHT22;10146;47.754;9.566;2023-05-02T13:10:21;15.60;99.90
19970;DHT22;10146;47.754;9.566;2023-05-02T13:12:47;15.40;99.90
19970;DHT22;10146;47.754;9.566;2023-05-02T13:15:13;15.10;99.90
19970;DHT22;10146;47.754;9.566;2023-05-02T13:17:39;14.90;99.90
19970;DHT22;10146;47.754;9.566;2023-05-02T13:20:06;14.80;99.90
19970;DHT22;10146;47.754;9.566;2023-05-02T13:22:33;14.90;99.90
19970;DHT22;10146;47.754;9.566;2023-05-02T13:24:59;14.80;99.90
19970;DHT22;10146;47.754;9.566;2023-05-02T13:27:25;14.60;99.90
19970;DHT22;10146;47.754;9.566;2023-05-02T13:29:51;14.60;99.90
19970;DHT22;10146;47.754;9.566;2023-05-02T13:32:17;14.70;99.90
19970;DHT22;10146;47.754;9.566;2023-05-02T13:34:43;14.70;99.90
19970;DHT22;10146;47.754;9.566;2023-05-02T13:37:12;14.80;99.90
19970;DHT22;10146;47.754;9.566;2023-05-02T13:39:41;15.00;99.90
19970;DHT22;10146;47.754;9.566;2023-05-02T13:42:06;15.00;99.90
19970;DHT22;10146;47.754;9.566;2023-05-02T13:44:32;14.90;99.90
19970;DHT22;10146;47.754;9.566;2023-05-02T13:46:57;15.10;99.90
19970;DHT22;10146;47.754;9.566;2023-05-02T13:49:23;15.20;99.90
19970;DHT22;10146;47.754;9.566;2023-05-02T13:51:49;15.40;99.90
19970;DHT22;10146;47.754;9.566;2023-05-02T13:54:15;15.00;99.90
19970;DHT22;10146;47.754;9.566;2023-05-02T13:56:41;15.00;99.90
19970;DHT22;10146;47.754;9.566;2023-05-02T13:59:07;15.00;99.90
19970;DHT22;10146;47.754;9.566;2023-05-02T14:01:33;15.10;99.90
19970;DHT22;10146;47.754;9.566;2023-05-02T14:03:59;15.00;99.90
19970;DHT22;10146;47.754;9.566;2023-05-02T14:06:31;15.00;99.90
19970;DHT22;10146;47.754;9.566;2023-05-02T14:08:56;15.00;99.90
19970;DHT22;10146;47.754;9.566;2023-05-02T14:11:22;14.90;99.90
19970;DHT22;10146;47.754;9.566;2023-05-02T14:13:48;14.90;99.90
19970;DHT22;10146;47.754;9.566;2023-05-02T14:16:13;14.90;99.90
19970;DHT22;10146;47.754;9.566;2023-05-02T14:18:39;15.30;99.90
19970;DHT22;10146;47.754;9.566;2023-05-02T14:21:04;16.00;99.90
19970;DHT22;10146;47.754;9.566;2023-05-02T14:23:30;16.40;99.90
19970;DHT22;10146;47.754;9.566;2023-05-02T14:25:56;16.00;99.90
19970;DHT22;10146;47.754;9.566;2023-05-02T14:28:22;15.50;99.90
19970;DHT22;10146;47.754;9.566;2023-05-02T14:30:48;15.40;99.90
19970;DHT22;10146;47.754;9.566;2023-05-02T14:33:14;15.20;99.90
19970;DHT22;10146;47.754;9.566;2023-05-02T14:35:39;15.40;99.90
19970;DHT22;10146;47.754;9.566;2023-05-02T14:38:05;15.10;99.90
19970;DHT22;10146;47.754;9.566;2023-05-02T14:40:31;15.10;99.90
19970;DHT22;10146;47.754;9.566;2023-05-02T14:42:57;15.30;99.90
19970;DHT22;10146;47.754;9.566;2023-05-02T14:45:22;15.60;99.90
19970;DHT22;10146;47.754;9.566;2023-05-02T14:47:48;15.30;99.90
19970;DHT22;10146;47.754;9.566;2023-05-02T14:50:15;15.60;99.90
19970;DHT22;10146;47.754;9.566;2023-05-02T14:52:41;16.80;99.90
19970;DHT22;10146;47.754;9.566;2023-05-02T14:55:07;17.30;99.90
19970;DHT22;10146;47.754;9.566;2023-05-02T14:57:33;17.70;99.90
19970;DHT22;10146;47.754;9.566;2023-05-02T14:59:59;16.80;99.90
19970;DHT22;10146;47.754;9.566;2023-05-02T15:02:25;16.30;99.90
19970;DHT22;10146;47.754;9.566;2023-05-02T15:04:51;16.30;99.90
19970;DHT22;10146;47.754;9.566;2023-05-02T15:07:17;16.10;99.90
19970;DHT22;10146;47.754;9.566;2023-05-02T15:09:42;15.90;99.90
19970;DHT22;10146;47.754;9.566;2023-05-02T15:12:08;15.90;99.90
19970;DHT22;10146;47.754;9.566;2023-05-02T15:14:34;15.90;99.90
19970;DHT22;10146;47.754;9.566;2023-05-02T15:16:59;17.40;99.90
19970;DHT22;10146;47.754;9.566;2023-05-02T15:19:25;17.10;99.90
19970;DHT22;10146;47.754;9.566;2023-05-02T15:21:51;16.80;99.90
19970;DHT22;10146;47.754;9.566;2023-05-02T15:24:22;16.50;99.90
19970;DHT22;10146;47.754;9.566;2023-05-02T15:26:49;16.60;99.90
19970;DHT22;10146;47.754;9.566;2023-05-02T15:29:15;16.80;99.90
19970;DHT22;10146;47.754;9.566;2023-05-02T15:31:41;17.10;99.90
19970;DHT22;10146;47.754;9.566;2023-05-02T15:34:06;17.90;99.90
19970;DHT22;10146;47.754;9.566;2023-05-02T15:36:32;22.10;99.90
19970;DHT22;10146;47.754;9.566;2023-05-02T15:39:04;23.60;97.10
19970;DHT22;10146;47.754;9.566;2023-05-02T15:41:29;24.20;92.70
19970;DHT22;10146;47.754;9.566;2023-05-02T15:43:58;22.10;95.00
19970;DHT22;10146;47.754;9.566;2023-05-02T15:46:24;20.50;99.90
19970;DHT22;10146;47.754;9.566;2023-05-02T15:48:50;20.40;99.90
19970;DHT22;10146;47.754;9.566;2023-05-02T15:51:16;20.40;99.90
19970;DHT22;10146;47.754;9.566;2023-05-02T15:53:41;19.90;99.90
19970;DHT22;10146;47.754;9.566;2023-05-02T15:56:10;20.40;99.90
19970;DHT22;10146;47.754;9.566;2023-05-02T15:58:36;22.30;99.90
19970;DHT22;10146;47.754;9.566;2023-05-02T16:01:02;23.40;95.90
19970;DHT22;10146;47.754;9.566;2023-05-02T16:03:28;23.30;91.90
19970;DHT22;10146;47.754;9.566;2023-05-02T16:05:54;22.70;90.60
19970;DHT22;10146;47.754;9.566;2023-05-02T16:08:22;21.20;94.60
19970;DHT22;10146;47.754;9.566;2023-05-02T16:10:47;21.80;95.40
19970;DHT22;10146;47.754;9.566;2023-05-02T16:13:13;22.80;90.40
19970;DHT22;10146;47.754;9.566;2023-05-02T16:15:39;21.60;92.80
19970;DHT22;10146;47.754;9.566;2023-05-02T16:18:04;20.40;94.50
19970;DHT22;10146;47.754;9.566;2023-05-02T16:20:30;20.00;97.80